Time;durP1;ratioP1;P1;durP2;ratioP2;P2;SDS_P1;SDS_P2;PMS_P1;PMS_P2;Temp;Humidity;BMP_temperature;BMP_pressure;BME280_temperature;BME280_humidity;BME280_pressure;Samples;Min_cycle;Max_cycle;Signal;HPM_P1;HPM_P2
2022/10/12 00:01:58;;;;;;;4.20;1.57;;;8.40;99.90;7.70;101172;;;;553553;255;24145;-84
2022/10/12 00:04:29;;;;;;;6.53;1.43;;;8.50;99.90;7.80;101174;;;;553786;255;24141;-82
2022/10/12 00:06:53;;;;;;;4.90;1.80;;;8.50;99.90;7.90;101170;;;;561690;255;24159;-82
2022/10/12 00:09:21;;;;;;;2.20;1.07;;;8.60;99.90;7.90;101175;;;;554245;255;24171;-82
2022/10/12 00:11:49;;;;;;;3.07;1.60;;;8.70;99.90;7.90;101174;;;;562046;251;24167;-82
2022/10/12 00:14:17;;;;;;;4.40;1.60;;;8.70;99.90;7.90;101175;;;;553970;255;24224;-82
2022/10/12 00:16:45;;;;;;;6.50;2.00;;;8.70;99.90;8.00;101170;;;;553894;255;24216;-82
2022/10/12 00:19:13;;;;;;;5.63;1.63;;;8.70;99.90;8.00;101169;;;;554663;254;24158;-82
2022/10/12 00:21:41;;;;;;;10.80;1.93;;;8.80;99.90;8.10;101166;;;;563284;250;24214;-82
2022/10/12 00:24:09;;;;;;;1.67;1.20;;;8.80;99.90;8.10;101177;;;;554778;254;24142;-79
2022/10/12 00:26:40;;;;;;;1.40;1.30;;;8.90;99.90;8.20;101175;;;;554547;254;24196;-83
2022/10/12 00:29:05;;;;;;;6.23;1.87;;;8.90;99.90;8.20;101179;;;;553969;254;24164;-83
2022/10/12 00:31:32;;;;;;;8.53;1.70;;;8.90;99.90;8.10;101190;;;;554508;254;24186;-82
2022/10/12 00:34:00;;;;;;;2.70;1.10;;;8.90;99.90;8.10;101182;;;;554320;254;24274;-80
2022/10/12 00:36:29;;;;;;;6.37;2.20;;;8.80;99.90;8.10;101179;;;;562404;255;24149;-79
2022/10/12 00:38:57;;;;;;;12.03;1.77;;;8.80;99.90;8.10;101182;;;;553986;255;24185;-82
2022/10/12 00:41:25;;;;;;;9.07;2.30;;;8.80;99.90;8.00;101187;;;;553748;255;24206;-83
2022/10/12 00:43:56;;;;;;;8.70;1.80;;;8.80;99.90;8.00;101176;;;;554065;255;24146;-78
2022/10/12 00:46:29;;;;;;;3.40;1.80;;;8.80;99.90;8.00;101189;;;;553771;255;24216;-78
2022/10/12 00:49:03;;;;;;;8.37;1.70;;;8.80;99.90;7.90;101186;;;;553946;255;24154;-80
2022/10/12 00:51:35;;;;;;;3.90;1.20;;;8.60;99.90;7.90;101192;;;;557035;255;24246;-79
2022/10/12 00:54:02;;;;;;;3.23;1.23;;;8.60;99.90;7.80;101186;;;;553835;255;24154;-80
2022/10/12 00:56:30;;;;;;;3.67;1.23;;;8.60;99.90;7.80;101177;;;;553620;255;24157;-82
2022/10/12 00:58:58;;;;;;;3.30;1.60;;;8.50;99.90;7.80;101184;;;;553771;255;24160;-80
2022/10/12 01:01:29;;;;;;;5.07;1.60;;;8.50;99.90;7.80;101179;;;;553789;255;24153;-81
2022/10/12 01:03:54;;;;;;;5.30;1.10;;;8.50;99.90;7.80;101178;;;;553662;255;24168;-80
2022/10/12 01:06:21;;;;;;;6.30;1.50;;;8.50;99.90;7.90;101184;;;;553757;255;24181;-82
2022/10/12 01:08:52;;;;;;;8.80;1.40;;;8.60;99.90;7.90;101187;;;;553249;255;24154;-80
2022/10/12 01:11:17;;;;;;;2.73;1.27;;;8.60;99.90;7.90;101185;;;;559293;255;24228;-81
2022/10/12 01:13:45;;;;;;;1.90;1.20;;;8.60;99.90;8.00;101191;;;;561909;251;24176;-80
2022/10/12 01:16:40;;;;;;;1.30;1.10;;;8.70;99.90;8.00;101185;;;;553818;255;24157;-79
2022/10/12 01:19:08;;;;;;;1.97;1.30;;;8.70;99.90;8.10;101192;;;;553326;255;24146;-80
2022/10/12 01:21:36;;;;;;;4.87;1.57;;;8.80;99.90;8.10;101191;;;;553234;254;24242;-81
2022/10/12 01:24:09;;;;;;;6.60;1.40;;;8.80;99.90;8.00;101189;;;;561575;255;24172;-79
2022/10/12 01:27:11;;;;;;;4.63;1.47;;;8.80;99.90;8.00;101182;;;;553321;255;24184;-79
2022/10/12 01:30:03;;;;;;;9.07;1.60;;;8.70;99.90;8.00;101191;;;;553824;255;24179;-79
2022/10/12 01:32:37;;;;;;;3.97;1.73;;;8.70;99.90;8.00;101197;;;;563581;254;24198;-80
2022/10/12 01:35:05;;;;;;;9.13;1.27;;;8.70;99.90;8.00;101191;;;;554178;254;24144;-80
2022/10/12 01:37:42;;;;;;;3.20;1.37;;;8.80;99.90;8.00;101198;;;;561776;254;24216;-78
2022/10/12 01:40:16;;;;;;;7.00;1.40;;;8.80;99.90;8.00;101192;;;;553394;254;24157;-82
2022/10/12 01:42:44;;;;;;;2.73;1.03;;;8.80;99.90;8.00;101204;;;;562621;254;24171;-83
2022/10/12 01:45:15;;;;;;;2.73;1.47;;;8.80;99.90;8.00;101192;;;;562490;251;24204;-78
2022/10/12 01:47:43;;;;;;;5.67;1.50;;;8.80;99.90;8.00;101191;;;;562243;254;25227;-81
2022/10/12 01:50:11;;;;;;;1.87;1.17;;;8.80;99.90;8.00;101192;;;;554106;255;24180;-82
2022/10/12 01:52:43;;;;;;;6.30;1.60;;;8.80;99.90;8.00;101192;;;;553770;255;24168;-82
2022/10/12 01:55:13;;;;;;;1.27;0.97;;;8.80;99.90;8.10;101191;;;;553097;255;24169;-82
2022/10/12 01:58:12;;;;;;;1.97;1.03;;;8.80;99.90;8.10;101187;;;;553618;255;24201;-80
2022/10/12 02:00:42;;;;;;;1.70;1.10;;;8.80;99.90;8.10;101190;;;;553674;255;24148;-80
2022/10/12 02:03:19;;;;;;;5.03;1.17;;;8.80;99.90;8.20;101184;;;;553671;255;24193;-81
2022/10/12 02:06:02;;;;;;;2.17;1.20;;;8.90;99.90;8.20;101193;;;;553886;250;24171;-83
2022/10/12 02:08:32;;;;;;;7.23;1.53;;;8.90;99.90;8.20;101187;;;;561490;255;24160;-80
2022/10/12 02:11:07;;;;;;;3.77;1.00;;;8.90;99.90;8.20;101192;;;;553650;255;24209;-79
2022/10/12 02:13:41;;;;;;;6.23;1.20;;;8.90;99.90;8.20;101179;;;;553437;255;24173;-80
2022/10/12 02:16:13;;;;;;;2.67;1.10;;;8.90;99.90;8.20;101179;;;;553667;255;24227;-82
2022/10/12 02:18:40;;;;;;;8.57;1.60;;;8.90;99.90;8.20;101184;;;;553581;255;24216;-80
2022/10/12 02:21:08;;;;;;;10.37;1.60;;;8.90;99.90;8.20;101190;;;;554063;255;24161;-81
2022/10/12 02:23:37;;;;;;;6.10;1.60;;;8.90;99.90;8.20;101185;;;;554024;255;24184;-80
2022/10/12 02:26:05;;;;;;;2.47;1.00;;;8.90;99.90;8.20;101191;;;;554129;255;24161;-81
2022/10/12 02:28:33;;;;;;;6.47;1.23;;;8.90;99.90;8.20;101193;;;;554300;255;24152;-83
2022/10/12 02:31:10;;;;;;;2.93;1.10;;;8.90;99.90;8.30;101195;;;;554179;255;24229;-83
2022/10/12 02:33:38;;;;;;;3.80;1.57;;;9.00;99.90;8.30;101192;;;;553453;255;24187;-82
2022/10/12 02:36:06;;;;;;;4.83;1.00;;;9.00;99.90;8.30;101199;;;;553872;255;24189;-83
2022/10/12 02:38:55;;;;;;;1.13;1.03;;;9.00;99.90;8.30;101191;;;;562215;255;24154;-80
2022/10/12 02:41:28;;;;;;;3.20;1.00;;;9.10;99.90;8.30;101192;;;;561798;255;24185;-82
2022/10/12 02:44:00;;;;;;;5.23;1.27;;;9.10;99.90;8.30;101197;;;;563812;250;24160;-81
2022/10/12 02:46:31;;;;;;;3.07;1.27;;;9.00;99.90;8.30;101191;;;;554695;254;24151;-82
2022/10/12 02:48:59;;;;;;;3.80;0.90;;;9.10;99.90;8.40;101184;;;;554885;254;24180;-83
2022/10/12 02:51:27;;;;;;;2.73;1.20;;;9.10;99.90;8.40;101192;;;;554645;254;24197;-83
2022/10/12 02:53:55;;;;;;;5.87;1.63;;;9.10;99.90;8.40;101191;;;;554503;254;24157;-82
2022/10/12 02:56:19;;;;;;;2.93;1.60;;;9.10;99.90;8.40;101188;;;;562503;254;24194;-80
2022/10/12 02:58:48;;;;;;;3.13;1.17;;;9.10;99.90;8.30;101194;;;;554689;254;24221;-83
2022/10/12 03:01:19;;;;;;;1.33;1.20;;;9.00;99.90;8.20;101201;;;;562597;255;24221;-83
2022/10/12 03:03:44;;;;;;;4.13;1.50;;;9.00;99.90;8.10;101193;;;;553256;255;24190;-83
2022/10/12 03:06:14;;;;;;;4.67;1.37;;;8.90;99.90;8.00;101198;;;;554460;255;24195;-82
2022/10/12 03:08:40;;;;;;;4.93;1.73;;;8.80;99.90;7.90;101200;;;;554423;254;24205;-82
2022/10/12 03:11:08;;;;;;;4.27;1.47;;;8.70;99.90;7.80;101194;;;;554508;255;24171;-83
2022/10/12 03:13:40;;;;;;;1.37;1.03;;;8.50;99.90;7.80;101195;;;;554410;252;24214;-84
2022/10/12 03:16:05;;;;;;;3.60;1.83;;;8.50;99.90;7.80;101198;;;;554026;255;24171;-82
2022/10/12 03:18:33;;;;;;;3.10;1.53;;;8.50;99.90;7.80;101192;;;;554218;255;24203;-82
2022/10/12 03:21:01;;;;;;;2.80;1.60;;;8.50;99.90;7.80;101191;;;;554181;255;24167;-80
2022/10/12 03:23:29;;;;;;;9.17;1.83;;;8.50;99.90;7.90;101202;;;;554198;255;24229;-82
2022/10/12 03:25:57;;;;;;;2.53;1.83;;;8.60;99.90;8.00;101202;;;;553780;255;24147;-83
2022/10/12 03:28:25;;;;;;;4.03;1.73;;;8.70;99.90;8.10;101212;;;;554170;255;24205;-80
2022/10/12 03:30:53;;;;;;;2.47;1.67;;;8.80;99.90;8.20;101208;;;;554126;255;24230;-80
2022/10/12 03:33:21;;;;;;;7.70;1.73;;;8.90;99.90;8.30;101215;;;;553706;255;24189;-81
2022/10/12 03:35:56;;;;;;;1.20;1.10;;;9.00;99.90;8.30;101209;;;;554150;255;24245;-80
2022/10/12 03:38:18;;;;;;;2.27;1.37;;;9.10;99.90;8.40;101212;;;;554026;255;24299;-81
2022/10/12 03:40:49;;;;;;;4.67;1.47;;;9.20;99.90;8.40;101212;;;;554096;255;24172;-81
2022/10/12 03:43:16;;;;;;;1.50;1.40;;;9.10;99.90;8.50;101211;;;;561998;251;24157;-83
2022/10/12 03:45:42;;;;;;;5.00;1.70;;;9.20;99.90;8.50;101218;;;;554022;255;24188;-79
2022/10/12 03:48:12;;;;;;;4.83;1.97;;;9.20;99.90;8.50;101218;;;;554154;255;24201;-80
2022/10/12 03:50:40;;;;;;;2.37;1.77;;;9.20;99.90;8.50;101221;;;;554104;255;24169;-80
2022/10/12 03:53:08;;;;;;;2.50;1.97;;;9.20;99.90;8.50;101227;;;;554235;253;24164;-79
2022/10/12 03:55:36;;;;;;;4.37;1.80;;;9.20;99.90;8.50;101228;;;;554993;254;24254;-81
2022/10/12 03:58:04;;;;;;;4.67;1.57;;;9.30;99.90;8.60;101223;;;;555069;254;24180;-81
2022/10/12 04:00:32;;;;;;;4.27;2.10;;;9.30;99.90;8.60;101231;;;;554877;254;24150;-80
2022/10/12 04:03:01;;;;;;;6.47;2.10;;;9.30;99.90;8.60;101229;;;;554706;254;24161;-81
2022/10/12 04:05:28;;;;;;;5.50;1.60;;;9.40;99.90;8.70;101226;;;;554166;254;24204;-81
2022/10/12 04:07:55;;;;;;;6.93;2.00;;;9.40;99.90;8.70;101232;;;;554183;254;24172;-80
2022/10/12 04:10:26;;;;;;;4.87;2.20;;;9.40;99.90;8.70;101233;;;;554214;254;24351;-81
2022/10/12 04:12:51;;;;;;;6.33;1.87;;;9.40;99.90;8.70;101236;;;;554000;255;24156;-82
2022/10/12 04:15:19;;;;;;;7.43;2.10;;;9.50;99.90;8.70;101233;;;;554344;255;24177;-80
2022/10/12 04:17:47;;;;;;;3.03;1.93;;;9.50;99.90;8.80;101239;;;;554399;255;24162;-80
2022/10/12 04:20:15;;;;;;;7.97;1.47;;;9.50;99.90;8.80;101243;;;;562322;251;24212;-84
2022/10/12 04:22:43;;;;;;;4.17;1.90;;;9.50;99.90;8.80;101246;;;;554066;255;24155;-83
2022/10/12 04:25:11;;;;;;;2.03;1.43;;;9.50;99.90;8.80;101243;;;;553721;255;24152;-81
2022/10/12 04:27:39;;;;;;;6.17;1.83;;;9.50;99.90;8.80;101246;;;;562198;255;24144;-82
2022/10/12 04:30:10;;;;;;;3.97;1.70;;;9.50;99.90;8.80;101250;;;;553784;255;24197;-82
2022/10/12 04:32:35;;;;;;;3.27;2.07;;;9.50;99.90;8.80;101256;;;;553342;255;24179;-80
2022/10/12 04:35:03;;;;;;;5.20;2.03;;;9.50;99.90;8.80;101264;;;;553639;255;24191;-81
2022/10/12 04:37:31;;;;;;;3.23;1.90;;;9.50;99.90;8.80;101254;;;;553772;255;24155;-83
2022/10/12 04:39:59;;;;;;;4.70;1.90;;;9.50;99.90;8.80;101252;;;;553742;255;24147;-80
2022/10/12 04:42:27;;;;;;;8.07;2.95;;;9.50;99.90;8.80;101258;;;;548969;255;35604;-83
2022/10/12 04:44:55;;;;;;;5.10;2.20;;;9.50;99.90;8.80;101267;;;;553722;255;24211;-83
2022/10/12 04:47:23;;;;;;;2.60;1.87;;;9.50;99.90;8.80;101256;;;;553663;255;24149;-81
2022/10/12 04:49:51;;;;;;;6.63;2.37;;;9.50;99.90;8.80;101261;;;;554427;255;24201;-82
2022/10/12 04:52:19;;;;;;;10.10;2.23;;;9.50;99.90;8.80;101266;;;;555068;255;24160;-81
2022/10/12 04:54:47;;;;;;;9.13;2.13;;;9.50;99.90;8.80;101270;;;;555406;255;24145;-81
2022/10/12 04:57:14;;;;;;;5.23;2.23;;;9.50;99.90;8.80;101279;;;;554332;255;24170;-81
2022/10/12 04:59:42;;;;;;;3.03;1.80;;;9.50;99.90;8.80;101275;;;;553727;255;24211;-80
2022/10/12 05:02:10;;;;;;;3.77;2.03;;;9.50;99.90;8.80;101280;;;;553802;255;24205;-80
2022/10/12 05:04:39;;;;;;;5.17;2.53;;;9.50;99.90;8.80;101276;;;;553815;253;24228;-82
2022/10/12 05:07:07;;;;;;;5.10;2.07;;;9.50;99.90;8.80;101277;;;;555267;254;24160;-82
2022/10/12 05:09:35;;;;;;;5.20;2.40;;;9.50;99.90;8.70;101273;;;;554682;254;24189;-81
2022/10/12 05:12:03;;;;;;;5.60;2.70;;;9.50;99.90;8.70;101276;;;;554667;254;24155;-82
2022/10/12 05:14:31;;;;;;;6.53;2.20;;;9.40;99.90;8.60;101276;;;;554391;254;24167;-83
2022/10/12 05:16:58;;;;;;;5.90;2.03;;;9.30;99.90;8.50;101264;;;;554771;254;24166;-82
2022/10/12 05:19:26;;;;;;;3.63;1.70;;;9.30;99.90;8.40;101275;;;;554645;254;24178;-83
2022/10/12 05:21:54;;;;;;;5.70;2.20;;;9.10;99.90;8.30;101276;;;;562482;250;24157;-80
2022/10/12 05:24:22;;;;;;;7.30;2.30;;;9.00;99.90;8.20;101270;;;;554139;255;24254;-80
2022/10/12 05:26:50;;;;;;;4.30;2.17;;;8.90;99.90;8.20;101277;;;;554173;255;24180;-80
2022/10/12 05:29:18;;;;;;;6.30;2.50;;;8.90;99.90;8.10;101278;;;;553922;255;24174;-80
2022/10/12 05:31:46;;;;;;;8.73;2.83;;;8.80;99.90;8.00;101275;;;;554097;255;24158;-81
2022/10/12 05:34:14;;;;;;;5.97;2.50;;;8.70;99.90;7.90;101278;;;;553974;255;24177;-81
2022/10/12 05:36:42;;;;;;;5.67;2.40;;;8.70;99.90;7.90;101285;;;;554177;255;25191;-81
2022/10/12 05:39:10;;;;;;;4.77;2.27;;;8.70;99.90;7.90;101285;;;;554006;255;24167;-81
2022/10/12 05:41:37;;;;;;;6.20;1.90;;;8.60;99.90;7.90;101288;;;;554258;255;24140;-80
2022/10/12 05:44:05;;;;;;;3.63;1.93;;;8.60;99.90;7.90;101288;;;;553889;255;24194;-80
2022/10/12 05:46:33;;;;;;;7.97;2.77;;;8.60;99.90;7.90;101289;;;;553656;255;24180;-79
2022/10/12 05:49:02;;;;;;;5.17;2.33;;;8.60;99.90;7.90;101290;;;;553880;255;24210;-79
2022/10/12 05:51:30;;;;;;;5.23;2.20;;;8.60;99.90;7.90;101283;;;;553680;255;24186;-79
2022/10/12 05:53:58;;;;;;;7.43;2.40;;;8.60;99.90;8.00;101273;;;;554367;255;24179;-82
2022/10/12 05:56:26;;;;;;;5.67;2.63;;;8.70;99.90;8.00;101278;;;;554344;255;24185;-82
2022/10/12 05:58:54;;;;;;;8.03;3.10;;;8.70;99.90;8.00;101276;;;;554428;255;24154;-83
2022/10/12 06:01:21;;;;;;;4.00;2.37;;;8.70;99.90;8.10;101279;;;;554044;255;24134;-80
2022/10/12 06:03:50;;;;;;;8.30;3.33;;;8.80;99.90;8.20;101269;;;;553916;255;24196;-80
2022/10/12 06:06:18;;;;;;;5.93;2.87;;;8.90;99.90;8.20;101270;;;;554191;255;24187;-80
2022/10/12 06:08:46;;;;;;;9.60;2.80;;;8.90;99.90;8.30;101283;;;;554112;255;24274;-80
2022/10/12 06:11:14;;;;;;;3.70;2.40;;;9.00;99.90;8.40;101283;;;;554043;251;24171;-80
2022/10/12 06:13:42;;;;;;;5.47;2.90;;;9.10;99.90;8.60;101284;;;;553830;255;24153;-81
2022/10/12 06:16:10;;;;;;;5.40;2.77;;;9.20;99.90;8.70;101284;;;;553621;255;24169;-81
2022/10/12 06:18:38;;;;;;;2.83;2.50;;;9.30;99.90;8.80;101285;;;;555526;254;24171;-81
2022/10/12 06:21:05;;;;;;;4.07;2.43;;;9.50;99.90;9.10;101291;;;;555002;254;24162;-81
2022/10/12 06:23:33;;;;;;;8.53;3.53;;;9.70;99.90;9.40;101291;;;;554546;254;24251;-81
2022/10/12 06:26:01;;;;;;;5.93;3.20;;;10.00;99.90;9.70;101297;;;;554447;254;24207;-80
2022/10/12 06:28:29;;;;;;;5.67;2.83;;;10.30;99.90;10.10;101298;;;;562390;254;24149;-81
2022/10/12 06:31:01;;;;;;;4.97;2.60;;;11.40;99.90;10.80;101299;;;;562485;254;24180;-81
2022/10/12 06:33:27;;;;;;;4.53;2.57;;;12.00;99.90;11.40;101300;;;;562242;254;24176;-81
2022/10/12 06:35:57;;;;;;;7.00;2.90;;;11.90;99.90;11.80;101306;;;;554087;255;24194;-81
2022/10/12 06:38:25;;;;;;;5.80;2.83;;;12.50;99.90;12.60;101311;;;;562116;250;24180;-81
2022/10/12 06:40:54;;;;;;;2.83;2.33;;;13.60;99.90;13.00;101316;;;;553745;255;24153;-81
2022/10/12 06:43:23;;;;;;;6.63;2.67;;;13.60;99.90;13.00;101314;;;;562151;255;24175;-81
2022/10/12 06:45:50;;;;;;;5.93;2.20;;;13.70;99.90;13.00;101321;;;;562039;250;26329;-81
2022/10/12 06:48:17;;;;;;;5.63;2.23;;;13.70;99.90;13.20;101318;;;;562132;250;24185;-80
2022/10/12 06:50:48;;;;;;;5.73;2.23;;;13.80;99.90;13.60;101325;;;;562099;255;24164;-80
2022/10/12 06:53:13;;;;;;;8.53;2.37;;;14.20;99.90;14.00;101321;;;;553779;255;24163;-80
2022/10/12 06:55:41;;;;;;;5.63;2.60;;;14.50;99.90;14.90;101318;;;;561955;255;24142;-81
2022/10/12 06:58:09;;;;;;;5.90;2.50;;;15.20;99.90;16.10;101327;;;;561775;250;24220;-80
2022/10/12 07:00:37;;;;;;;5.73;2.60;;;16.30;99.90;17.30;101322;;;;561980;250;24178;-79
2022/10/12 07:03:05;;;;;;;4.63;2.00;;;17.50;99.90;18.50;101335;;;;558990;255;24222;-79
2022/10/12 07:05:34;;;;;;;6.03;2.50;;;19.50;99.90;19.20;101335;;;;559082;252;24160;-79
2022/10/12 07:08:01;;;;;;;3.73;2.00;;;19.50;99.90;19.40;101331;;;;561838;255;24263;-80
2022/10/12 07:10:29;;;;;;;4.30;2.53;;;19.80;99.90;19.50;101326;;;;557190;255;35675;-81
2022/10/12 07:12:57;;;;;;;7.57;2.90;;;20.00;99.90;19.60;101331;;;;561880;251;24169;-81
2022/10/12 07:15:25;;;;;;;5.83;2.10;;;20.20;99.90;19.60;101332;;;;553566;255;24169;-81
2022/10/12 07:17:56;;;;;;;8.40;1.93;;;20.20;99.90;19.40;101334;;;;561889;250;24139;-80
2022/10/12 07:20:22;;;;;;;2.97;2.17;;;19.90;99.90;19.20;101330;;;;561943;250;24161;-81
2022/10/12 07:22:51;;;;;;;4.97;2.30;;;19.70;99.90;19.10;101337;;;;562227;255;24152;-81
2022/10/12 07:25:22;;;;;;;7.47;2.50;;;19.70;99.90;19.00;101337;;;;561863;251;24209;-80
2022/10/12 07:27:49;;;;;;;12.53;2.20;;;19.60;99.90;19.20;101342;;;;553983;253;24212;-80
2022/10/12 07:30:18;;;;;;;4.83;2.17;;;19.80;99.90;19.30;101343;;;;563413;254;24181;-80
2022/10/12 07:32:47;;;;;;;4.53;2.23;;;20.00;99.90;19.60;101349;;;;563002;254;24150;-80
2022/10/12 07:35:15;;;;;;;6.33;2.03;;;20.00;99.90;19.70;101356;;;;563002;250;23198;-81
2022/10/12 07:37:43;;;;;;;6.63;2.40;;;20.10;99.90;19.80;101359;;;;562699;254;23184;-80
2022/10/12 07:40:10;;;;;;;7.53;3.23;;;20.20;99.90;20.30;101344;;;;562678;254;24168;-80
2022/10/12 07:42:38;;;;;;;7.90;2.50;;;20.70;99.90;21.20;101357;;;;562496;254;24182;-81
2022/10/12 07:45:06;;;;;;;4.80;2.33;;;21.40;99.90;22.50;101356;;;;562467;254;24129;-81
2022/10/12 07:47:34;;;;;;;5.80;1.90;;;22.60;98.90;24.40;101357;;;;562269;255;24141;-80
2022/10/12 07:50:02;;;;;;;3.80;2.23;;;24.30;95.40;26.40;101357;;;;562143;255;24168;-83
2022/10/12 07:52:31;;;;;;;6.27;2.70;;;26.20;90.40;28.20;101358;;;;554163;255;23175;-79
2022/10/12 07:54:58;;;;;;;4.10;2.50;;;28.10;79.30;29.80;101363;;;;562191;255;23195;-80
2022/10/12 07:57:26;;;;;;;13.97;2.80;;;29.80;69.60;30.70;101364;;;;562373;255;23197;-81
2022/10/12 07:59:54;;;;;;;5.60;2.45;;;30.90;62.10;31.60;101369;;;;562220;255;23173;-80
2022/10/12 08:02:22;;;;;;;5.15;2.33;;;31.80;57.40;32.00;101374;;;;562275;250;23163;-80
2022/10/12 08:04:54;;;;;;;5.18;2.12;;;33.00;52.70;32.30;101378;;;;562321;255;24214;-81
2022/10/12 08:07:19;;;;;;;3.67;2.40;;;33.10;52.20;32.30;101372;;;;561702;255;23208;-81
2022/10/12 08:09:48;;;;;;;6.50;2.40;;;33.40;51.20;32.70;101377;;;;562091;255;23163;-81
2022/10/12 08:12:19;;;;;;;8.13;1.95;;;33.40;51.10;33.00;101369;;;;561810;255;23152;-80
2022/10/12 08:14:44;;;;;;;4.70;2.05;;;33.70;50.30;33.20;101383;;;;561409;255;23181;-80
2022/10/12 08:17:11;;;;;;;8.73;2.30;;;33.90;49.40;33.30;101379;;;;561958;255;23152;-81
2022/10/12 08:19:39;;;;;;;3.92;2.50;;;33.90;49.20;33.70;101388;;;;562281;250;23254;-81
2022/10/12 08:22:10;;;;;;;3.85;2.78;;;34.30;48.00;33.90;101390;;;;562363;250;23155;-82
2022/10/12 08:24:39;;;;;;;5.60;2.58;;;34.50;47.40;34.30;101383;;;;553751;255;24246;-81
2022/10/12 08:27:06;;;;;;;4.50;2.10;;;34.90;47.20;34.90;101383;;;;560642;255;24209;-80
2022/10/12 08:29:31;;;;;;;4.80;2.15;;;35.50;46.20;35.10;101387;;;;562963;250;23137;-83
2022/10/12 08:32:00;;;;;;;6.50;2.60;;;35.80;45.40;35.00;101386;;;;552533;255;23189;-81
2022/10/12 08:34:31;;;;;;;5.22;2.08;;;35.90;45.50;35.50;101394;;;;562063;250;23172;-81
2022/10/12 08:36:55;;;;;;;3.92;2.22;;;36.20;45.00;35.40;101389;;;;553999;255;23222;-83
2022/10/12 08:39:23;;;;;;;5.45;2.78;;;36.20;44.50;35.30;101389;;;;562717;250;23181;-84
2022/10/12 08:41:58;;;;;;;6.97;2.20;;;36.60;44.20;35.80;101394;;;;563650;254;23201;-81
2022/10/12 08:44:44;;;;;;;3.67;1.80;;;36.60;44.20;35.70;101394;;;;563276;254;23163;-81
2022/10/12 08:47:34;;;;;;;3.28;1.90;;;35.90;43.60;34.70;101397;;;;562656;254;24164;-79
2022/10/12 08:50:02;;;;;;;6.07;2.00;;;35.80;43.50;34.80;101406;;;;562713;254;23187;-80
2022/10/12 08:52:33;;;;;;;8.57;2.10;;;35.60;43.80;34.90;101399;;;;554500;252;23214;-80
2022/10/12 08:55:05;;;;;;;5.00;1.92;;;35.60;43.20;34.60;101389;;;;562675;254;23159;-81
2022/10/12 08:57:34;;;;;;;3.90;1.92;;;35.40;43.60;34.40;101399;;;;562170;252;23185;-81
2022/10/12 09:00:01;;;;;;;4.00;1.60;;;35.10;43.70;34.10;101395;;;;562311;251;23167;-80
2022/10/12 09:02:47;;;;;;;4.45;1.70;;;35.10;43.70;34.20;101403;;;;562108;255;23204;-81
2022/10/12 09:05:15;;;;;;;5.47;1.70;;;35.10;44.10;34.60;101405;;;;553927;255;23230;-80
2022/10/12 09:08:02;;;;;;;5.80;1.75;;;35.20;42.70;34.30;101410;;;;552534;255;24179;-80
2022/10/12 09:10:36;;;;;;;3.83;1.90;;;34.40;43.00;33.40;101410;;;;562146;251;23201;-79
2022/10/12 09:13:10;;;;;;;6.10;2.00;;;34.40;43.00;32.10;101412;;;;562373;251;23159;-80
2022/10/12 09:15:38;;;;;;;3.17;1.42;;;33.50;44.70;30.90;101404;;;;553760;255;23195;-80
2022/10/12 09:18:06;;;;;;;6.80;1.40;;;32.40;45.90;30.20;101410;;;;552737;255;23214;-80
2022/10/12 09:20:34;;;;;;;3.33;1.45;;;31.70;46.70;29.50;101410;;;;562374;250;23167;-79
2022/10/12 09:23:06;;;;;;;4.25;1.50;;;30.90;47.90;28.70;101409;;;;562380;254;23170;-80
2022/10/12 09:25:33;;;;;;;3.65;1.77;;;30.10;48.90;28.00;101409;;;;553555;253;23270;-79
2022/10/12 09:28:13;;;;;;;10.17;4.17;;;29.30;50.10;27.50;101409;;;;562713;255;24171;-81
2022/10/12 09:30:40;;;;;;;7.10;1.90;;;28.70;50.90;26.80;101399;;;;562252;254;23293;-81
2022/10/12 09:33:14;;;;;;;4.60;2.13;;;27.90;51.20;26.20;101418;;;;562248;250;24186;-82
2022/10/12 09:35:42;;;;;;;7.50;2.70;;;27.40;51.70;25.40;101414;;;;562285;254;24198;-79
2022/10/12 09:38:14;;;;;;;9.32;4.70;;;26.60;52.50;25.20;101404;;;;557167;255;35656;-81
2022/10/12 09:40:41;;;;;;;6.57;2.40;;;26.30;54.00;24.30;101413;;;;559352;255;23223;-80
2022/10/12 09:43:05;;;;;;;3.87;1.60;;;25.70;54.30;24.80;101411;;;;561703;255;24147;-80
2022/10/12 09:45:37;;;;;;;13.00;2.83;;;25.60;54.80;24.70;101419;;;;562103;255;23202;-81
2022/10/12 09:48:23;;;;;;;6.57;2.80;;;25.60;54.50;24.30;101413;;;;562189;255;23194;-82
2022/10/12 09:51:02;;;;;;;10.67;2.70;;;25.30;55.60;24.70;101409;;;;562734;255;23179;-81
2022/10/12 09:53:30;;;;;;;7.47;2.67;;;25.40;55.50;25.20;101415;;;;555664;254;24145;-82
2022/10/12 09:56:04;;;;;;;7.80;1.83;;;25.90;53.90;24.90;101410;;;;563914;254;23225;-83
2022/10/12 09:58:33;;;;;;;9.27;4.00;;;25.90;53.70;24.00;101414;;;;560029;254;23206;-83
2022/10/12 10:01:17;;;;;;;7.40;3.30;;;25.30;55.20;23.60;101412;;;;563354;250;24202;-83
2022/10/12 10:03:44;;;;;;;8.67;2.73;;;24.70;56.60;23.60;101405;;;;563323;254;24142;-84
2022/10/12 10:06:14;;;;;;;11.80;3.40;;;24.50;57.40;23.60;101406;;;;563514;250;23189;-82
2022/10/12 10:08:39;;;;;;;17.13;7.73;;;24.50;57.40;23.60;101404;;;;563286;254;23220;-81
2022/10/12 10:11:07;;;;;;;7.10;3.93;;;24.50;57.00;23.40;101408;;;;563103;250;24176;-81
2022/10/12 10:13:35;;;;;;;6.67;4.00;;;24.40;57.20;22.40;101408;;;;562797;251;24142;-80
2022/10/12 10:16:09;;;;;;;5.57;3.20;;;23.70;58.10;21.50;101415;;;;562459;254;24199;-80
2022/10/12 10:18:42;;;;;;;13.23;5.73;;;22.00;61.80;20.80;101414;;;;562378;255;24226;-80
2022/10/12 10:21:15;;;;;;;16.47;5.70;;;21.20;63.10;20.10;101410;;;;553458;255;24233;-79
2022/10/12 10:23:46;;;;;;;10.20;3.47;;;20.30;64.80;19.20;101412;;;;562472;250;24144;-80
2022/10/12 10:26:14;;;;;;;15.70;5.07;;;20.20;64.70;18.50;101408;;;;561806;250;24168;-79
2022/10/12 10:28:42;;;;;;;9.00;3.13;;;19.50;67.00;18.10;101413;;;;562534;255;24162;-79
2022/10/12 10:31:14;;;;;;;17.50;3.20;;;18.90;69.20;17.70;101410;;;;562416;250;25196;-80
2022/10/12 10:33:41;;;;;;;71.40;23.63;;;18.40;70.80;17.30;101405;;;;562286;250;24226;-77
2022/10/12 10:36:18;;;;;;;41.90;16.03;;;17.90;73.20;16.90;101400;;;;553931;255;24162;-79
2022/10/12 10:39:07;;;;;;;36.43;13.93;;;17.50;74.80;16.40;101403;;;;554141;255;24166;-80
2022/10/12 10:41:37;;;;;;;9.43;3.93;;;17.00;76.70;16.00;101399;;;;553313;255;25267;-80
2022/10/12 10:44:08;;;;;;;6.43;3.20;;;16.60;78.60;15.60;101386;;;;562295;250;24160;-81
2022/10/12 10:46:33;;;;;;;9.13;2.80;;;15.90;81.30;15.30;101386;;;;562218;255;24160;-81
2022/10/12 10:49:05;;;;;;;4.13;1.73;;;15.80;81.20;15.20;101386;;;;562482;250;24195;-82
2022/10/12 10:51:44;;;;;;;23.00;8.00;;;15.70;83.50;15.00;101385;;;;562212;255;24159;-79
2022/10/12 10:54:27;;;;;;;24.73;8.03;;;15.50;85.60;14.80;101389;;;;562211;250;24157;-79
2022/10/12 10:57:03;;;;;;;9.07;4.87;;;15.30;87.50;14.70;101391;;;;562002;251;24165;-80
2022/10/12 10:59:49;;;;;;;10.67;4.23;;;15.20;89.50;14.60;101395;;;;562289;251;24195;-80
2022/10/12 11:02:29;;;;;;;6.10;1.20;;;15.10;90.20;14.40;101395;;;;554368;255;24145;-80
2022/10/12 11:05:00;;;;;;;4.87;2.23;;;14.90;90.40;14.20;101397;;;;559981;254;24149;-80
2022/10/12 11:07:36;;;;;;;6.90;1.47;;;14.80;90.70;14.10;101395;;;;554829;254;24156;-80
2022/10/12 11:10:04;;;;;;;6.03;1.10;;;14.60;91.60;14.00;101398;;;;562793;254;24144;-80
2022/10/12 11:12:38;;;;;;;2.33;0.93;;;14.50;92.30;14.00;101394;;;;562827;250;24147;-79
2022/10/12 11:15:23;;;;;;;3.80;1.33;;;14.50;92.90;14.00;101396;;;;563043;254;24151;-80
2022/10/12 11:17:54;;;;;;;24.43;10.83;;;14.50;93.70;13.90;101397;;;;554906;254;24180;-80
2022/10/12 11:20:32;;;;;;;21.33;8.53;;;14.40;94.60;13.80;101394;;;;554826;254;24153;-80
2022/10/12 11:23:24;;;;;;;23.90;10.90;;;14.30;96.40;13.70;101400;;;;562293;255;24158;-80
2022/10/12 11:26:20;;;;;;;3.70;2.53;;;14.30;97.10;13.70;101406;;;;561463;250;24244;-79
2022/10/12 11:28:49;;;;;;;9.20;4.77;;;14.20;97.80;13.70;101399;;;;564061;250;24106;-81
2022/10/12 11:31:17;;;;;;;6.70;3.80;;;14.20;97.70;13.70;101389;;;;554217;255;24130;-79